createdAt,value
2022-08-05T00:01:20.176Z,88922.31
2022-08-05T00:04:12.497Z,88917.00
2022-08-05T00:06:58.339Z,88919.19
2022-08-05T00:09:44.045Z,88912.72
2022-08-05T00:12:29.025Z,88907.16
2022-08-05T00:15:54.031Z,88903.81
2022-08-05T00:18:21.570Z,88900.81
2022-08-05T00:21:08.432Z,88893.63
2022-08-05T00:24:05.063Z,88896.53
2022-08-05T00:26:56.610Z,88899.13
2022-08-05T00:29:43.288Z,88892.88
2022-08-05T00:32:28.165Z,88892.72
2022-08-05T00:35:13.051Z,88890.66
2022-08-05T00:37:57.745Z,88886.72
2022-08-05T00:40:52.007Z,88888.59
2022-08-05T00:43:47.336Z,88883.97
2022-08-05T00:46:42.581Z,88888.25
2022-08-05T00:49:32.386Z,88879.25
2022-08-05T00:52:17.667Z,88878.22
2022-08-05T00:55:02.391Z,88879.47
2022-08-05T00:57:58.621Z,88883.53
2022-08-05T01:00:44.161Z,88885.84
2022-08-05T01:03:30.833Z,88880.19
2022-08-05T01:06:18.609Z,88873.59
2022-08-05T01:09:04.081Z,88866.78
2022-08-05T01:11:51.764Z,88862.75
2022-08-05T01:14:36.942Z,88855.94
2022-08-05T01:17:22.264Z,88853.84
2022-08-05T01:20:07.610Z,88846.34
2022-08-05T01:22:52.776Z,88846.09
2022-08-05T01:25:42.147Z,88840.41
2022-08-05T01:28:39.408Z,88838.44
2022-08-05T01:31:24.329Z,88841.56
2022-08-05T01:34:09.975Z,88851.28
2022-08-05T01:36:55.752Z,88856.06
2022-08-05T01:39:47.169Z,88856.06
2022-08-05T01:42:32.661Z,88852.84
2022-08-05T01:45:18.534Z,88851.34
2022-08-05T01:48:05.275Z,88845.75
2022-08-05T01:50:55.397Z,88844.16
2022-08-05T01:53:57.251Z,88849.13
2022-08-05T01:58:10.981Z,88854.91
2022-08-05T01:59:48.545Z,88848.91
2022-08-05T02:02:33.240Z,88843.25
2022-08-05T02:05:20.106Z,88846.50
2022-08-05T02:08:08.353Z,88845.44
2022-08-05T02:10:53.069Z,88839.53
2022-08-05T02:13:53.100Z,88832.16
2022-08-05T02:16:38.182Z,88836.09
2022-08-05T02:19:24.606Z,88830.19
2022-08-05T02:22:17.446Z,88832.16
2022-08-05T02:25:12.494Z,88825.47
2022-08-05T02:28:00.328Z,88830.44
2022-08-05T02:30:51.812Z,88833.56
2022-08-05T02:33:39.778Z,88832.41
2022-08-05T02:36:24.676Z,88828.34
2022-08-05T02:39:12.648Z,88824.22
2022-08-05T02:42:01.089Z,88826.59
2022-08-05T02:44:46.522Z,88822.34
2022-08-05T02:47:58.644Z,88823.97
2022-08-05T02:50:36.315Z,88823.38
2022-08-05T02:53:21.466Z,88824.44
2022-08-05T02:56:06.325Z,88826.13
2022-08-05T02:58:52.742Z,88824.66
2022-08-05T03:01:37.458Z,88827.31
2022-08-05T03:04:24.298Z,88827.41
2022-08-05T03:07:09.561Z,88826.72
2022-08-05T03:10:14.542Z,88820.50
2022-08-05T03:15:43.277Z,88817.25
2022-08-05T03:18:29.946Z,88820.03
2022-08-05T03:21:15.555Z,88816.22
2022-08-05T03:24:02.451Z,88811.72
2022-08-05T03:26:49.376Z,88801.69
2022-08-05T03:29:45.407Z,88805.63
2022-08-05T03:32:39.384Z,88803.53
2022-08-05T03:35:24.732Z,88802.38
2022-08-05T03:38:09.524Z,88797.88
2022-08-05T03:40:54.285Z,88798.47
2022-08-05T03:44:09.365Z,88799.16
2022-08-05T03:46:47.307Z,88793.84
2022-08-05T03:49:51.342Z,88794.53
2022-08-05T03:54:59.302Z,88795.22
2022-08-05T03:56:05.518Z,88795.22
2022-08-05T03:58:46.597Z,88791.50
2022-08-05T04:01:32.320Z,88796.25
2022-08-05T04:04:21.126Z,88794.41
2022-08-05T04:07:06.413Z,88794.41
2022-08-05T04:09:53.526Z,88794.16
2022-08-05T04:15:24.518Z,88797.53
2022-08-05T04:18:11.248Z,88790.84
2022-08-05T04:21:00.858Z,88783.34
2022-08-05T04:23:57.362Z,88794.28
2022-08-05T04:26:50.863Z,88792.28
2022-08-05T04:29:36.260Z,88786.72
2022-08-05T04:32:30.854Z,88797.94
2022-08-05T04:35:17.590Z,88798.06
2022-08-05T04:38:06.826Z,88800.38
2022-08-05T04:40:51.669Z,88800.16
2022-08-05T04:43:36.553Z,88801.91
2022-08-05T04:46:27.833Z,88806.75
2022-08-05T04:49:14.785Z,88813.44
2022-08-05T04:52:00.481Z,88812.31
2022-08-05T04:54:45.703Z,88812.31
2022-08-05T04:57:37.178Z,88823.75
2022-08-05T05:00:23.255Z,88822.69
2022-08-05T05:03:09.010Z,88822.69
2022-08-05T05:06:39.382Z,88822.44
2022-08-05T05:08:58.938Z,88822.56
2022-08-05T05:11:55.597Z,88820.13
2022-08-05T05:14:49.130Z,88828.69
2022-08-05T05:17:56.193Z,88826.50
2022-08-05T05:20:39.511Z,88821.66
2022-08-05T05:23:24.698Z,88822.69
2022-08-05T05:26:09.523Z,88822.94
2022-08-05T05:28:54.666Z,88822.00
2022-08-05T05:31:41.784Z,88830.28
2022-08-05T05:34:31.646Z,88820.47
2022-08-05T05:37:16.649Z,88827.38
2022-08-05T05:40:01.848Z,88815.66
2022-08-05T05:42:47.076Z,88829.69
2022-08-05T05:45:32.289Z,88830.06
2022-08-05T05:48:17.117Z,88823.25
2022-08-05T05:51:14.760Z,88823.56
2022-08-05T05:54:00.658Z,88821.78
2022-08-05T05:56:45.321Z,88820.16
2022-08-05T05:59:32.182Z,88820.78
2022-08-05T06:02:37.666Z,88819.03
2022-08-05T06:05:22.879Z,88825.44
2022-08-05T06:08:07.727Z,88811.97
2022-08-05T06:10:54.439Z,88820.66
2022-08-05T06:13:40.691Z,88829.22
2022-08-05T06:16:37.265Z,88826.59
2022-08-05T06:19:26.206Z,88830.31
2022-08-05T06:22:19.184Z,88825.31
2022-08-05T06:25:24.418Z,88823.91
2022-08-05T06:28:20.989Z,88823.91
2022-08-05T06:31:10.883Z,88823.88
2022-08-05T06:34:06.398Z,88816.50
2022-08-05T06:36:57.602Z,88827.53
2022-08-05T08:24:01.239Z,88796.56
2022-08-05T08:26:46.662Z,88812.44
2022-08-05T08:30:05.546Z,88805.59
2022-08-05T08:32:41.677Z,88808.13
2022-08-05T08:35:26.833Z,88803.13
2022-08-05T08:38:35.858Z,88802.56
2022-08-05T08:41:26.361Z,88795.88
2022-08-05T08:45:23.346Z,88800.72
2022-08-05T08:48:07.112Z,88808.31
2022-08-05T08:51:07.588Z,88797.34
2022-08-05T08:53:45.168Z,88807.06
2022-08-05T08:56:30.362Z,88803.13
2022-08-05T08:59:19.714Z,88796.03
2022-08-05T09:02:06.029Z,88801.41
2022-08-05T09:05:16.270Z,88798.19
2022-08-05T09:07:58.794Z,88799.94
2022-08-05T09:10:43.893Z,88798.69
2022-08-05T09:18:22.124Z,88793.47
2022-08-05T09:21:11.797Z,88797.91
2022-08-05T09:24:06.763Z,88796.03
2022-08-05T09:26:52.079Z,88793.63
2022-08-05T09:29:37.257Z,88793.13
2022-08-05T09:32:45.996Z,88799.97
2022-08-05T09:35:31.600Z,88790.66
2022-08-05T09:38:27.618Z,88791.81
2022-08-05T09:41:16.239Z,88781.69
2022-08-05T09:44:01.412Z,88783.84
2022-08-05T09:46:51.945Z,88785.84
2022-08-05T09:50:01.297Z,88783.91
2022-08-05T09:52:47.603Z,88778.00
2022-08-05T09:55:56.795Z,88768.34
2022-08-05T09:58:42.797Z,88759.09
2022-08-05T10:01:32.390Z,88764.84
2022-08-05T10:04:18.449Z,88757.13
2022-08-05T10:07:19.570Z,88767.03
2022-08-05T10:10:15.144Z,88757.78
2022-08-05T10:13:00.995Z,88753.31
2022-08-05T10:15:45.762Z,88757.06
2022-08-05T10:18:32.054Z,88754.22
2022-08-05T10:21:17.416Z,88750.97
2022-08-05T10:24:10.590Z,88756.50
2022-08-05T10:26:56.122Z,88760.31
2022-08-05T10:30:06.804Z,88762.56
2022-08-05T10:32:59.730Z,88749.94
2022-08-05T10:35:59.009Z,88747.69
2022-08-05T10:38:45.116Z,88744.91
2022-08-05T10:41:46.874Z,88739.81
2022-08-05T10:44:32.399Z,88737.91
2022-08-05T10:47:25.936Z,88736.63
2022-08-05T10:50:32.863Z,88729.94
2022-08-05T10:53:17.590Z,88725.09
2022-08-05T10:56:05.421Z,88729.56
2022-08-05T10:59:12.623Z,88725.16
2022-08-05T11:02:34.402Z,88726.44
2022-08-05T11:05:18.200Z,88718.44
2022-08-05T11:08:12.698Z,88721.97
2022-08-05T11:11:16.543Z,88724.38
2022-08-05T11:14:02.023Z,88726.19
2022-08-05T11:16:57.955Z,88726.78
2022-08-05T11:20:17.546Z,88728.63
2022-08-05T11:22:49.798Z,88730.06
2022-08-05T11:26:05.099Z,88730.06
2022-08-05T11:28:40.299Z,88740.13
2022-08-05T11:31:54.541Z,88733.94
2022-08-05T11:34:29.786Z,88733.50
2022-08-05T11:38:30.623Z,88732.94
2022-08-05T11:40:23.682Z,88729.03
2022-08-05T11:43:10.869Z,88737.97
2022-08-05T11:46:27.521Z,88742.81
2022-08-05T11:49:00.368Z,88747.59
2022-08-05T11:51:49.722Z,88746.41
2022-08-05T11:54:35.085Z,88738.09
2022-08-05T11:57:25.169Z,88739.09
2022-08-05T12:00:11.182Z,88734.34
2022-08-05T12:02:57.468Z,88741.91
2022-08-05T12:05:43.642Z,88740.84
2022-08-05T12:08:28.540Z,88739.81
2022-08-05T12:11:20.321Z,88737.75
2022-08-05T12:14:05.686Z,88728.69
2022-08-05T12:16:51.933Z,88731.13
2022-08-05T12:20:16.694Z,88728.00
2022-08-05T12:22:41.940Z,88746.78
2022-08-05T12:25:31.108Z,88740.56
2022-08-05T12:28:15.847Z,88748.06
2022-08-05T12:31:02.384Z,88752.34
2022-08-05T12:33:47.354Z,88752.22
2022-08-05T12:36:33.185Z,88754.22
2022-08-05T12:39:18.348Z,88756.00
2022-08-05T12:42:03.125Z,88753.28
2022-08-05T12:44:48.000Z,88747.41
2022-08-05T12:47:33.185Z,88749.97
2022-08-05T12:50:19.804Z,88756.75
2022-08-05T12:53:04.827Z,88742.88
2022-08-05T12:55:49.643Z,88743.69
2022-08-05T12:58:50.692Z,88746.91
2022-08-05T13:02:01.009Z,88741.09
2022-08-05T13:04:54.471Z,88732.31
2022-08-05T13:10:50.751Z,88719.13
2022-08-05T13:14:04.875Z,88712.53
2022-08-05T13:16:41.127Z,88703.50
2022-08-05T13:19:26.237Z,88707.97
2022-08-05T13:22:12.180Z,88716.81
2022-08-05T13:25:00.369Z,88712.56
2022-08-05T13:27:46.034Z,88726.50
2022-08-05T13:30:36.966Z,88722.88
2022-08-05T13:34:23.085Z,88727.63
2022-08-05T13:36:29.215Z,88726.28
2022-08-05T13:39:24.451Z,88725.41
2022-08-05T13:42:18.769Z,88721.22
2022-08-05T13:45:06.335Z,88724.28
2022-08-05T13:48:09.162Z,88724.81
2022-08-05T13:50:55.814Z,88720.47
2022-08-05T13:53:47.756Z,88706.31
2022-08-05T13:56:33.563Z,88722.25
2022-08-05T13:59:19.452Z,88723.66
2022-08-05T14:02:06.882Z,88711.50
2022-08-05T14:04:52.173Z,88708.97
2022-08-05T14:08:00.228Z,88713.25
2022-08-05T14:10:41.841Z,88715.00
2022-08-05T14:13:26.721Z,88719.41
2022-08-05T14:16:19.142Z,88725.09
2022-08-05T14:19:04.408Z,88710.25
2022-08-05T14:22:09.439Z,88717.84
2022-08-05T14:24:54.709Z,88715.53
2022-08-05T14:27:47.265Z,88725.56
2022-08-05T14:30:32.317Z,88715.72
2022-08-05T14:33:22.772Z,88731.72
2022-08-05T14:36:08.603Z,88707.47
2022-08-05T14:38:53.347Z,88719.91
2022-08-05T14:41:39.164Z,88725.72
2022-08-05T14:44:33.482Z,88720.06
2022-08-05T14:48:03.961Z,88716.69
2022-08-05T14:50:23.304Z,88710.56
2022-08-05T14:53:10.508Z,88695.59
2022-08-05T14:55:55.855Z,88707.56
2022-08-05T14:58:47.560Z,88708.66
2022-08-05T15:01:47.947Z,88724.88
2022-08-05T15:04:34.678Z,88717.22
2022-08-05T15:08:12.422Z,88727.13
2022-08-05T15:10:28.623Z,88728.84
2022-08-05T15:13:13.901Z,88721.06
2022-08-05T15:15:58.758Z,88725.59
2022-08-05T15:18:43.514Z,88716.31
2022-08-05T15:21:32.375Z,88712.28
2022-08-05T15:24:20.289Z,88714.78
2022-08-05T15:27:09.062Z,88719.59
2022-08-05T15:29:56.735Z,88713.22
2022-08-05T15:32:41.693Z,88721.59
2022-08-05T15:35:26.499Z,88727.38
2022-08-05T15:38:33.918Z,88717.75
2022-08-05T15:41:23.919Z,88705.94
2022-08-05T15:44:09.562Z,88701.13
2022-08-05T15:46:55.827Z,88701.28
2022-08-05T15:49:56.828Z,88695.56
2022-08-05T15:52:52.919Z,88680.50
2022-08-05T15:56:02.960Z,88679.34
2022-08-05T15:58:44.149Z,88675.53
2022-08-05T16:01:29.965Z,88674.19
2022-08-05T16:04:25.455Z,88675.84
2022-08-05T16:07:10.955Z,88678.16
2022-08-05T16:09:55.999Z,88684.22
2022-08-05T16:12:40.711Z,88691.25
2022-08-05T16:15:32.517Z,88690.09
2022-08-05T16:18:18.758Z,88696.78
2022-08-05T16:21:05.073Z,88699.22
2022-08-05T16:23:53.789Z,88710.69
2022-08-05T16:26:40.462Z,88712.41
2022-08-05T16:29:28.802Z,88719.22
2022-08-05T16:32:16.105Z,88733.34
2022-08-05T16:35:00.709Z,88739.75
2022-08-05T16:38:13.696Z,88752.97
2022-08-05T16:40:55.730Z,88768.53
2022-08-05T16:43:45.426Z,88780.38
2022-08-05T16:46:30.101Z,88798.50
2022-08-05T16:49:16.847Z,88801.53
2022-08-05T16:52:01.685Z,88810.56
2022-08-05T16:54:47.925Z,88811.91
2022-08-05T16:57:53.060Z,88823.38
2022-08-05T17:00:38.014Z,88824.63
2022-08-05T17:03:24.922Z,88822.06
2022-08-05T17:06:12.931Z,88829.91
2022-08-05T17:09:01.243Z,88844.28
2022-08-05T17:11:49.031Z,88854.88
2022-08-05T17:14:38.127Z,88861.19
2022-08-05T17:17:23.407Z,88864.63
2022-08-05T17:20:27.501Z,88891.69
2022-08-05T17:24:03.683Z,88893.66
2022-08-05T17:26:18.432Z,88894.25
2022-08-05T17:29:07.308Z,88900.38
2022-08-05T17:31:57.321Z,88902.00
2022-08-05T17:34:44.113Z,88910.69
2022-08-05T17:37:41.807Z,88914.28
2022-08-05T17:40:30.145Z,88936.31
2022-08-05T17:43:16.306Z,88933.59
2022-08-05T17:46:02.818Z,88944.50
2022-08-05T17:48:49.563Z,88944.81
2022-08-05T17:51:40.068Z,88957.03
2022-08-05T17:54:25.392Z,88955.72
2022-08-05T17:57:12.120Z,88958.81
2022-08-05T18:00:03.292Z,88977.34
2022-08-05T18:02:50.327Z,88993.97
2022-08-05T18:05:36.353Z,88998.72
2022-08-05T18:08:21.335Z,89002.44
2022-08-05T18:11:06.114Z,89008.34
2022-08-05T18:13:51.416Z,89022.78
2022-08-05T18:16:51.306Z,89026.75
2022-08-05T18:19:37.488Z,89039.50
2022-08-05T18:22:46.158Z,89047.94
2022-08-05T18:25:34.430Z,89059.25
2022-08-05T18:28:21.804Z,89084.22
2022-08-05T18:31:06.937Z,89100.75
2022-08-05T18:33:53.837Z,89103.63
2022-08-05T18:36:43.636Z,89112.66
2022-08-05T18:40:31.032Z,89126.13
2022-08-05T18:42:33.562Z,89117.56
2022-08-05T18:45:18.695Z,89131.03
2022-08-05T18:48:04.537Z,89135.66
2022-08-05T18:50:49.376Z,89141.38
2022-08-05T18:53:34.640Z,89133.06
2022-08-05T18:56:27.776Z,89143.44
2022-08-05T18:59:42.148Z,89142.81
2022-08-05T19:02:26.884Z,89138.41
2022-08-05T19:06:11.727Z,89140.66
2022-08-05T19:08:18.819Z,89150.78
2022-08-05T19:11:05.087Z,89148.00
2022-08-05T19:14:00.621Z,89154.00
2022-08-05T19:16:47.435Z,89154.88
2022-08-05T19:19:32.447Z,89158.66
2022-08-05T19:22:27.590Z,89164.25
2022-08-05T19:25:29.669Z,89167.06
2022-08-05T19:28:15.662Z,89175.59
2022-08-05T19:31:01.147Z,89175.81
2022-08-05T19:33:48.358Z,89172.59
2022-08-05T19:36:42.547Z,89187.22
2022-08-05T19:39:28.311Z,89186.94
2022-08-05T19:42:13.599Z,89193.41
2022-08-05T19:45:01.435Z,89206.16
2022-08-05T19:47:46.637Z,89210.41
2022-08-05T19:50:31.382Z,89219.44
2022-08-05T19:53:17.159Z,89218.47
2022-08-05T19:56:32.368Z,89224.44
2022-08-05T19:59:51.257Z,89231.13
2022-08-05T20:02:24.969Z,89230.72
2022-08-05T20:05:16.411Z,89236.28
2022-08-05T20:08:09.472Z,89226.53
2022-08-05T20:10:55.098Z,89224.31
2022-08-05T20:13:54.759Z,89215.25
2022-08-05T20:16:44.207Z,89219.19
2022-08-05T20:19:36.337Z,89215.41
2022-08-05T20:22:27.264Z,89215.13
2022-08-05T20:25:12.561Z,89222.25
2022-08-05T20:27:57.593Z,89226.13
2022-08-05T20:30:42.627Z,89222.50
2022-08-05T20:33:27.450Z,89226.53
2022-08-05T20:36:17.871Z,89225.84
2022-08-05T20:39:02.965Z,89221.81
2022-08-05T20:41:48.324Z,89223.03
2022-08-05T20:44:37.732Z,89222.25
2022-08-05T20:47:31.960Z,89228.91
2022-08-05T20:50:17.012Z,89228.72
2022-08-05T20:53:03.247Z,89229.66
2022-08-05T20:56:07.983Z,89223.81
2022-08-05T20:58:52.866Z,89228.53
2022-08-05T21:01:38.744Z,89218.66
2022-08-05T21:04:23.954Z,89222.94
2022-08-05T21:07:12.200Z,89217.00
2022-08-05T21:09:57.629Z,89218.56
2022-08-05T21:13:09.116Z,89218.97
2022-08-05T21:15:51.055Z,89222.84
2022-08-05T21:18:36.514Z,89230.22
2022-08-05T21:21:24.367Z,89224.78
2022-08-05T21:24:09.730Z,89222.28
2022-08-05T21:26:58.859Z,89230.00
2022-08-05T21:29:48.534Z,89227.25
2022-08-05T21:32:35.749Z,89228.22
2022-08-05T21:35:30.297Z,89229.38
2022-08-05T21:38:25.313Z,89222.41
2022-08-05T21:41:12.019Z,89223.66
2022-08-05T21:44:03.428Z,89217.25
2022-08-05T21:46:48.758Z,89219.06
2022-08-05T21:49:56.841Z,89209.31
2022-08-05T21:52:38.338Z,89206.66
2022-08-05T21:55:43.028Z,89207.91
2022-08-05T21:58:42.161Z,89208.44
2022-08-05T22:01:27.441Z,89199.94
2022-08-05T22:04:13.340Z,89198.69
2022-08-05T22:06:58.470Z,89202.31
2022-08-05T22:09:45.971Z,89198.94
2022-08-05T22:12:31.374Z,89204.91
2022-08-05T22:15:16.395Z,89204.31
2022-08-05T22:18:01.731Z,89202.09
2022-08-05T22:20:46.868Z,89194.66
2022-08-05T22:24:03.359Z,89195.22
2022-08-05T22:26:41.791Z,89190.03
2022-08-05T22:29:35.337Z,89179.41
2022-08-05T22:32:20.850Z,89172.59
2022-08-05T22:35:08.000Z,89166.59
2022-08-05T22:37:58.940Z,89161.50
2022-08-05T22:40:49.309Z,89149.41
2022-08-05T22:43:36.604Z,89147.09
2022-08-05T22:46:23.516Z,89147.44
2022-08-05T22:49:12.529Z,89155.53
2022-08-05T22:52:23.040Z,89157.81
2022-08-05T22:55:18.206Z,89151.53
2022-08-05T22:58:05.035Z,89152.34
2022-08-05T23:00:50.485Z,89152.13
2022-08-05T23:03:58.730Z,89150.84
2022-08-05T23:06:40.766Z,89153.16
2022-08-05T23:09:53.491Z,89144.56
2022-08-05T23:12:33.295Z,89143.16
2022-08-05T23:15:18.574Z,89137.94
2022-08-05T23:18:11.489Z,89138.41
2022-08-05T23:21:01.105Z,89127.75
2022-08-05T23:23:45.958Z,89110.28
2022-08-05T23:26:31.333Z,89111.44
2022-08-05T23:32:22.948Z,89107.81
2022-08-05T23:35:08.097Z,89101.03
2022-08-05T23:37:52.859Z,89095.59
2022-08-05T23:40:39.815Z,89096.06
2022-08-05T23:44:03.565Z,89088.97
2022-08-05T23:46:32.185Z,89092.97
2022-08-05T23:49:23.814Z,89092.03
2022-08-05T23:52:18.766Z,89084.78
2022-08-05T23:55:05.415Z,89080.59
2022-08-05T23:57:52.857Z,89081.41
